Time;durP1;ratioP1;P1;durP2;ratioP2;P2;SDS_P1;SDS_P2;PMS_P1;PMS_P2;Temp;Humidity;BMP_temperature;BMP_pressure;BME280_temperature;BME280_humidity;BME280_pressure;Samples;Min_cycle;Max_cycle;Signal;HPM_P1;HPM_P2
2022/04/29 00:00:42;;;;;;;8.30;4.33;;;;;;;10.32;55.77;101446.30;1693429;84;21563;-53
2022/04/29 00:03:10;;;;;;;9.83;4.20;;;;;;;10.30;55.83;101448.59;1686029;84;21476;-53
2022/04/29 00:05:40;;;;;;;10.48;4.30;;;;;;;10.26;55.83;101444.00;1684285;84;21686;-54
2022/04/29 00:08:09;;;;;;;7.67;4.37;;;;;;;10.22;55.73;101440.72;1687725;84;21058;-55
2022/04/29 00:10:38;;;;;;;7.62;4.33;;;;;;;10.18;55.70;101443.14;1693255;84;21066;-53
2022/04/29 00:13:08;;;;;;;7.37;4.30;;;;;;;10.15;55.72;101446.44;1687451;83;21461;-53
2022/04/29 00:15:36;;;;;;;9.00;4.90;;;;;;;10.10;55.99;101447.19;1686463;84;21815;-54
2022/04/29 00:18:03;;;;;;;10.60;5.53;;;;;;;10.08;56.33;101445.97;1676379;83;21039;-53
2022/04/29 00:20:30;;;;;;;10.05;4.85;;;;;;;10.06;56.50;101451.80;1688007;84;21113;-53
2022/04/29 00:22:59;;;;;;;9.83;4.75;;;;;;;10.05;56.64;101447.46;1689907;83;21039;-53
2022/04/29 00:25:27;;;;;;;9.40;4.58;;;;;;;10.09;56.67;101439.78;1693855;84;21078;-54
2022/04/29 00:27:54;;;;;;;9.45;5.00;;;;;;;10.11;56.80;101444.47;1689369;83;21224;-54
2022/04/29 00:30:21;;;;;;;10.68;5.30;;;;;;;10.14;56.89;101446.91;1683669;84;21095;-53
2022/04/29 00:32:48;;;;;;;10.85;5.15;;;;;;;10.16;57.41;101443.72;1724634;82;21038;-53
2022/04/29 00:35:16;;;;;;;8.85;4.92;;;;;;;10.17;57.75;101444.10;1726447;82;21023;-53
2022/04/29 00:37:48;;;;;;;9.68;5.05;;;;;;;10.16;57.88;101438.45;1721240;81;21860;-54
2022/04/29 00:40:18;;;;;;;9.93;5.28;;;;;;;10.14;57.62;101439.03;1660294;85;21189;-53
2022/04/29 00:42:46;;;;;;;7.97;4.83;;;;;;;10.09;57.60;101437.15;1720024;81;21077;-53
2022/04/29 00:45:17;;;;;;;11.30;5.37;;;;;;;10.06;57.67;101435.18;1689652;84;21311;-54
2022/04/29 00:47:44;;;;;;;9.70;4.45;;;;;;;9.99;57.71;101434.23;1721275;82;21114;-53
2022/04/29 00:50:15;;;;;;;10.65;5.62;;;;;;;9.94;57.75;101435.45;1690162;84;21134;-54
2022/04/29 00:52:45;;;;;;;9.68;5.78;;;;;;;9.87;57.79;101429.73;1690366;84;21796;-53
2022/04/29 00:55:13;;;;;;;9.25;5.12;;;;;;;9.81;57.95;101431.40;1725606;83;21039;-54
2022/04/29 00:58:03;;;;;;;9.50;5.40;;;;;;;9.75;58.20;101431.75;1690141;84;21019;-53
2022/04/29 01:00:31;;;;;;;11.53;5.10;;;;;;;9.68;58.52;101435.22;1687451;84;21047;-54
2022/04/29 01:03:00;;;;;;;9.75;5.85;;;;;;;9.59;58.97;101433.98;1683780;84;21047;-53
2022/04/29 01:05:28;;;;;;;9.53;4.92;;;;;;;9.55;59.16;101436.43;1725491;83;21035;-53
2022/04/29 01:07:56;;;;;;;8.10;4.90;;;;;;;9.54;59.23;101436.52;1721291;81;21067;-54
2022/04/29 01:10:23;;;;;;;10.28;5.78;;;;;;;9.55;59.36;101428.55;1719596;81;21118;-54
2022/04/29 01:12:58;;;;;;;8.93;5.47;;;;;;;9.56;59.62;101434.16;1675452;83;21075;-53
2022/04/29 01:15:26;;;;;;;9.25;5.62;;;;;;;9.60;60.12;101433.06;1691487;84;21501;-53
2022/04/29 01:17:56;;;;;;;8.73;5.55;;;;;;;9.66;60.26;101438.41;1690917;83;20976;-53
2022/04/29 01:20:29;;;;;;;9.55;5.58;;;;;;;9.70;60.14;101430.73;1690642;84;21090;-53
2022/04/29 01:22:57;;;;;;;11.00;5.67;;;;;;;9.72;60.06;101427.55;1688137;83;21082;-53
2022/04/29 01:25:24;;;;;;;10.32;6.05;;;;;;;9.72;60.08;101433.28;1654484;86;21153;-53
2022/04/29 01:27:53;;;;;;;9.60;6.17;;;;;;;9.66;60.10;101431.36;1683161;84;21039;-53
2022/04/29 01:30:22;;;;;;;11.30;5.60;;;;;;;9.59;60.24;101433.15;1684911;84;21224;-53
2022/04/29 01:32:50;;;;;;;9.28;5.30;;;;;;;9.51;60.45;101438.00;1688144;83;20988;-54
2022/04/29 01:35:18;;;;;;;10.50;5.40;;;;;;;9.39;60.53;101435.16;1691644;84;21241;-53
2022/04/29 01:37:44;;;;;;;10.08;5.85;;;;;;;9.32;60.60;101440.39;1686002;84;21638;-53
2022/04/29 01:40:12;;;;;;;9.88;5.42;;;;;;;9.23;60.62;101440.91;1687257;84;21560;-53
2022/04/29 01:42:41;;;;;;;9.08;4.65;;;;;;;9.20;60.83;101438.00;1688052;84;21141;-53
2022/04/29 01:45:10;;;;;;;10.38;4.95;;;;;;;9.24;60.84;101433.42;1691649;83;21397;-53
2022/04/29 01:47:41;;;;;;;10.72;5.67;;;;;;;9.27;60.63;101436.71;1650070;86;21539;-53
2022/04/29 01:50:27;;;;;;;15.18;7.03;;;;;;;9.27;60.59;101435.88;1691162;84;21086;-53
2022/04/29 01:52:54;;;;;;;9.60;5.28;;;;;;;9.25;60.61;101432.50;1688838;84;21027;-53
2022/04/29 01:55:20;;;;;;;8.75;5.22;;;;;;;9.21;60.57;101430.52;1689887;84;22796;-53
2022/04/29 01:57:50;;;;;;;9.50;5.67;;;;;;;9.17;60.45;101426.84;1685978;84;21596;-54
2022/04/29 02:00:18;;;;;;;9.68;6.15;;;;;;;9.11;60.48;101429.33;1677744;84;21134;-53
2022/04/29 02:02:50;;;;;;;7.58;4.83;;;;;;;9.04;60.50;101423.58;1651702;84;21091;-53
2022/04/29 02:05:18;;;;;;;9.53;5.37;;;;;;;8.99;60.59;101423.47;1678558;84;21094;-53
2022/04/29 02:07:49;;;;;;;10.93;5.35;;;;;;;8.95;60.63;101419.34;1677624;83;21479;-53
2022/04/29 02:10:16;;;;;;;9.63;5.17;;;;;;;8.91;60.65;101419.98;1685803;83;21075;-53
2022/04/29 02:12:46;;;;;;;9.45;5.40;;;;;;;8.86;60.69;101422.00;1689256;84;21102;-53
2022/04/29 02:15:26;;;;;;;10.88;5.50;;;;;;;8.80;60.78;101419.26;1691202;84;21087;-53
2022/04/29 02:17:53;;;;;;;13.25;5.80;;;;;;;8.74;60.82;101422.22;1719395;82;21478;-53
2022/04/29 02:20:24;;;;;;;9.23;5.28;;;;;;;8.68;61.07;101423.89;1690586;83;21453;-53
2022/04/29 02:22:52;;;;;;;9.63;5.30;;;;;;;8.66;61.54;101424.45;1725416;81;21126;-53
2022/04/29 02:25:20;;;;;;;10.13;5.25;;;;;;;8.68;62.01;101425.20;1725862;81;21101;-53
2022/04/29 02:27:47;;;;;;;10.70;5.15;;;;;;;8.76;61.82;101430.01;1723450;81;21023;-54
2022/04/29 02:30:13;;;;;;;9.55;5.10;;;;;;;8.82;61.73;101433.61;1676819;84;21524;-53
2022/04/29 02:32:41;;;;;;;11.30;5.50;;;;;;;8.84;61.67;101431.30;1686139;84;21124;-53
2022/04/29 02:35:09;;;;;;;9.20;4.85;;;;;;;8.84;61.49;101439.61;1691001;84;21137;-53
2022/04/29 02:37:36;;;;;;;10.35;5.10;;;;;;;8.80;61.30;101436.80;1687472;84;21066;-55
2022/04/29 02:40:05;;;;;;;10.30;5.33;;;;;;;8.74;61.16;101436.20;1683173;84;21497;-53
2022/04/29 02:42:33;;;;;;;9.38;4.60;;;;;;;8.71;60.99;101443.41;1690259;84;21110;-53
2022/04/29 02:45:00;;;;;;;8.58;5.05;;;;;;;8.66;60.80;101443.66;1689589;84;21173;-53
2022/04/29 02:47:29;;;;;;;8.65;4.75;;;;;;;8.59;60.76;101440.13;1723142;83;21097;-53
2022/04/29 02:49:56;;;;;;;9.60;4.83;;;;;;;8.51;60.78;101435.31;1690184;84;21556;-53
2022/04/29 02:52:24;;;;;;;8.45;4.83;;;;;;;8.42;60.92;101440.54;1689455;84;21051;-54
2022/04/29 02:54:51;;;;;;;10.00;5.60;;;;;;;8.36;61.04;101444.83;1724579;81;21572;-53
2022/04/29 02:57:19;;;;;;;8.98;4.53;;;;;;;8.34;61.66;101450.15;1722038;83;21161;-53
2022/04/29 02:59:48;;;;;;;8.63;4.50;;;;;;;8.38;61.72;101454.28;1722896;82;21054;-54
2022/04/29 03:02:14;;;;;;;8.30;4.65;;;;;;;8.41;61.43;101457.22;1690175;84;21098;-54
2022/04/29 03:04:41;;;;;;;8.08;4.87;;;;;;;8.40;61.45;101446.81;1686652;83;21138;-53
2022/04/29 03:07:09;;;;;;;10.32;5.10;;;;;;;8.38;61.44;101447.73;1722104;82;21043;-54
2022/04/29 03:09:48;;;;;;;8.85;5.45;;;;;;;8.37;61.39;101451.74;1724914;83;21146;-53
2022/04/29 03:12:16;;;;;;;12.78;5.87;;;;;;;8.37;61.44;101456.55;1721575;81;21037;-54
2022/04/29 03:14:45;;;;;;;10.10;5.50;;;;;;;8.37;61.01;101457.86;1690657;84;21059;-53
2022/04/29 03:19:58;;;;;;;9.03;4.75;;;;;;;8.36;60.92;101457.94;1689559;83;21126;-53
2022/04/29 03:22:26;;;;;;;10.60;5.10;;;;;;;8.33;60.99;101465.48;1720102;81;21055;-54
2022/04/29 03:24:55;;;;;;;9.58;5.08;;;;;;;8.32;61.22;101472.99;1721570;81;21143;-53
2022/04/29 03:27:22;;;;;;;12.50;5.20;;;;;;;8.32;61.27;101475.62;1725595;83;21078;-53
2022/04/29 03:29:49;;;;;;;7.55;4.47;;;;;;;8.40;60.74;101470.42;1680640;84;21550;-53
2022/04/29 03:32:18;;;;;;;9.20;4.53;;;;;;;8.49;60.48;101468.63;1725249;83;21089;-53
2022/04/29 03:35:00;;;;;;;16.05;5.17;;;;;;;8.60;60.05;101476.77;1715405;83;21172;-53
2022/04/29 03:37:26;;;;;;;9.58;4.92;;;;;;;8.68;59.14;101475.05;1710311;83;21058;-53
2022/04/29 03:39:54;;;;;;;8.18;4.65;;;;;;;8.76;58.37;101472.86;1715727;81;21014;-53
2022/04/29 03:42:21;;;;;;;10.50;4.42;;;;;;;8.82;57.83;101476.91;1716121;83;21535;-53
2022/04/29 03:44:48;;;;;;;10.35;4.83;;;;;;;8.84;57.44;101475.91;1711581;81;21741;-53
2022/04/29 03:47:15;;;;;;;10.88;4.47;;;;;;;8.82;56.58;101474.29;1718234;81;21114;-53
2022/04/29 03:49:53;;;;;;;9.70;4.25;;;;;;;8.77;55.85;101477.16;1716314;81;21023;-54
2022/04/29 03:52:23;;;;;;;8.03;3.90;;;;;;;8.72;55.92;101477.44;1716804;83;21130;-53
2022/04/29 03:54:53;;;;;;;10.43;4.50;;;;;;;8.68;55.75;101481.62;1719105;81;21061;-53
2022/04/29 03:57:21;;;;;;;10.15;4.12;;;;;;;8.64;55.77;101488.81;1717962;81;22255;-53
2022/04/29 03:59:51;;;;;;;9.13;4.42;;;;;;;8.62;55.65;101493.75;1714626;83;21266;-53
2022/04/29 04:02:19;;;;;;;9.13;4.22;;;;;;;8.60;55.41;101491.67;1680381;83;21118;-52
2022/04/29 04:04:46;;;;;;;9.45;4.80;;;;;;;8.58;55.51;101506.19;1676350;84;21066;-53
2022/04/29 04:07:14;;;;;;;7.08;3.90;;;;;;;8.61;54.99;101509.09;1713683;81;21145;-52
2022/04/29 04:09:45;;;;;;;7.72;4.25;;;;;;;8.61;55.03;101507.78;1709289;81;21151;-53
2022/04/29 04:12:12;;;;;;;8.68;5.08;;;;;;;8.62;54.81;101503.77;1730246;81;21279;-53
2022/04/29 04:15:00;;;;;;;9.55;4.25;;;;;;;8.63;54.72;101513.34;1712245;81;21045;-53
2022/04/29 04:17:28;;;;;;;11.70;6.03;;;;;;;8.65;54.96;101510.16;1712990;82;21615;-53
2022/04/29 04:19:56;;;;;;;10.50;5.15;;;;;;;8.67;54.92;101506.98;1711518;82;21141;-53
2022/04/29 04:22:22;;;;;;;11.12;4.42;;;;;;;8.72;54.90;101510.68;1706998;83;22025;-53
2022/04/29 04:24:51;;;;;;;10.48;5.08;;;;;;;8.74;54.94;101509.69;1675838;84;21071;-53
2022/04/29 04:27:18;;;;;;;10.10;5.15;;;;;;;8.77;54.08;101513.91;1672570;84;22600;-53
2022/04/29 04:29:46;;;;;;;9.68;3.95;;;;;;;8.79;53.63;101512.03;1676901;84;21536;-53
2022/04/29 04:32:13;;;;;;;9.85;5.00;;;;;;;8.80;53.50;101514.22;1674665;84;21060;-53
2022/04/29 04:34:50;;;;;;;9.28;4.58;;;;;;;8.82;53.38;101511.87;1676797;83;21019;-53
2022/04/29 04:37:26;;;;;;;11.18;5.03;;;;;;;8.83;53.74;101514.89;1672823;83;25644;-53
2022/04/29 04:39:58;;;;;;;8.88;4.72;;;;;;;8.87;53.60;101514.25;1675212;84;21444;-53
2022/04/29 04:42:24;;;;;;;8.33;4.35;;;;;;;8.90;53.83;101520.17;1670678;84;21119;-52
2022/04/29 04:44:53;;;;;;;9.20;5.25;;;;;;;8.94;53.49;101516.91;1675235;84;21064;-52
2022/04/29 04:47:20;;;;;;;10.23;4.90;;;;;;;8.98;53.64;101517.14;1676601;84;21074;-52
2022/04/29 04:49:55;;;;;;;8.08;4.20;;;;;;;9.01;53.59;101515.66;1675612;83;21856;-52
2022/04/29 04:52:27;;;;;;;9.13;4.70;;;;;;;9.05;53.28;101513.23;1673509;84;21563;-53
2022/04/29 04:54:55;;;;;;;8.55;4.62;;;;;;;9.07;53.49;101515.30;1678256;84;21525;-53
2022/04/29 04:57:24;;;;;;;9.40;4.60;;;;;;;9.11;53.49;101522.09;1647854;85;21177;-52
2022/04/29 04:59:51;;;;;;;12.07;4.90;;;;;;;9.16;53.76;101518.35;1680443;85;21674;-52
2022/04/29 05:02:20;;;;;;;9.15;5.05;;;;;;;9.20;53.11;101520.73;1650994;84;21221;-54
2022/04/29 05:05:08;;;;;;;7.28;4.42;;;;;;;9.26;53.05;101524.34;1603964;87;21095;-52
2022/04/29 05:07:34;;;;;;;10.05;4.87;;;;;;;9.30;53.16;101531.09;1652322;84;21050;-52
2022/04/29 05:10:08;;;;;;;12.03;5.17;;;;;;;9.34;53.29;101526.51;1677706;84;21489;-52
2022/04/29 05:12:43;;;;;;;10.10;4.85;;;;;;;9.40;53.26;101528.80;1687227;84;21643;-52
2022/04/29 05:15:14;;;;;;;9.23;4.50;;;;;;;9.45;53.54;101532.01;1721559;82;21366;-53
2022/04/29 05:17:43;;;;;;;9.45;4.67;;;;;;;9.52;53.52;101531.67;1720258;81;21033;-53
2022/04/29 05:20:17;;;;;;;9.13;5.30;;;;;;;9.60;53.13;101535.55;1722365;81;21057;-53
2022/04/29 05:22:46;;;;;;;8.18;4.55;;;;;;;9.66;52.49;101536.96;1720028;81;21528;-53
2022/04/29 05:25:13;;;;;;;7.87;4.03;;;;;;;9.71;52.61;101538.86;1680139;84;21061;-53
2022/04/29 05:27:41;;;;;;;8.33;4.47;;;;;;;9.77;52.51;101540.30;1684058;83;21181;-53
2022/04/29 05:30:27;;;;;;;8.13;4.40;;;;;;;9.84;52.29;101538.52;1624252;86;22320;-52
2022/04/29 05:33:07;;;;;;;10.20;4.53;;;;;;;9.92;52.20;101535.45;1590183;85;22404;-53
2022/04/29 05:35:52;;;;;;;10.15;4.80;;;;;;;9.98;51.89;101535.55;1720935;81;21054;-53
2022/04/29 05:44:08;;;;;;;9.45;3.80;;;;;;;10.29;51.79;101532.39;1713023;81;21038;-53
2022/04/29 05:46:35;;;;;;;8.73;4.37;;;;;;;10.40;51.42;101531.31;1730408;81;21028;-53
2022/04/29 05:49:04;;;;;;;7.55;3.72;;;;;;;10.53;50.92;101530.09;1668280;84;21146;-53
2022/04/29 05:51:32;;;;;;;7.78;3.12;;;;;;;10.64;50.47;101532.05;1693917;83;21069;-54
2022/04/29 05:54:01;;;;;;;6.65;3.30;;;;;;;10.77;49.52;101538.25;1712786;81;21142;-54
2022/04/29 05:56:28;;;;;;;7.00;3.50;;;;;;;10.88;48.79;101540.23;1701244;82;21083;-53
2022/04/29 05:58:56;;;;;;;6.50;3.05;;;;;;;10.97;48.74;101536.52;1719788;81;21030;-52
2022/04/29 06:01:29;;;;;;;12.47;3.33;;;;;;;11.10;48.52;101545.81;1710068;82;21058;-53
2022/04/29 06:03:55;;;;;;;7.62;2.83;;;;;;;11.21;47.80;101542.96;1678485;84;21110;-53
2022/04/29 06:06:23;;;;;;;9.73;3.25;;;;;;;11.31;47.53;101543.61;1720334;81;21214;-53
2022/04/29 06:08:50;;;;;;;5.67;2.90;;;;;;;11.43;47.51;101539.78;1716476;81;21135;-53
2022/04/29 06:11:18;;;;;;;6.45;2.77;;;;;;;11.54;47.09;101538.61;1723475;83;21035;-53
2022/04/29 06:13:45;;;;;;;7.42;2.72;;;;;;;11.64;46.66;101542.33;1711409;82;21571;-53
2022/04/29 06:16:17;;;;;;;5.47;2.70;;;;;;;11.73;46.58;101543.50;1647902;85;21016;-53
2022/04/29 06:19:03;;;;;;;6.17;3.02;;;;;;;11.85;45.92;101547.11;1629729;86;21063;-53
2022/04/29 06:21:48;;;;;;;6.97;2.92;;;;;;;11.95;45.75;101553.49;1690350;83;21089;-53
2022/04/29 06:24:17;;;;;;;6.95;2.83;;;;;;;12.00;44.44;101556.69;1658849;84;21093;-53
2022/04/29 06:26:44;;;;;;;5.58;2.42;;;;;;;12.03;44.65;101557.78;1660335;86;21674;-53
2022/04/29 06:29:13;;;;;;;5.45;2.02;;;;;;;12.07;45.15;101560.60;1663523;84;21128;-53
2022/04/29 06:31:41;;;;;;;6.78;2.25;;;;;;;12.15;44.75;101560.55;1633142;86;21278;-53
2022/04/29 06:34:16;;;;;;;4.80;2.07;;;;;;;12.23;44.11;101563.03;1692163;83;21101;-53
2022/04/29 06:36:43;;;;;;;6.85;2.42;;;;;;;12.30;43.21;101562.13;1693811;82;21057;-53
2022/04/29 06:39:13;;;;;;;5.62;2.17;;;;;;;12.34;43.49;101564.95;1691462;83;21137;-53
2022/04/29 06:41:58;;;;;;;8.73;2.58;;;;;;;12.38;43.37;101559.81;1689383;83;21043;-53
2022/04/29 06:44:41;;;;;;;6.67;2.12;;;;;;;12.45;43.77;101565.03;1632226;86;21256;-54
2022/04/29 06:47:14;;;;;;;5.22;2.08;;;;;;;12.58;43.82;101562.88;1606960;86;21022;-52
2022/04/29 06:49:58;;;;;;;4.37;1.42;;;;;;;12.67;43.37;101570.14;1587709;89;21662;-52
2022/04/29 06:52:34;;;;;;;7.85;2.40;;;;;;;12.76;42.68;101572.16;1612343;86;21063;-53
2022/04/29 06:55:08;;;;;;;4.62;2.05;;;;;;;12.82;42.20;101569.06;1653373;85;21079;-53
2022/04/29 06:57:36;;;;;;;5.08;2.20;;;;;;;12.88;42.35;101573.09;1654213;85;21147;-53
2022/04/29 07:00:06;;;;;;;7.40;2.15;;;;;;;12.96;42.09;101565.92;1634899;86;21042;-53
2022/04/29 07:02:33;;;;;;;3.37;1.60;;;;;;;13.04;41.80;101563.58;1657053;86;21051;-52
2022/04/29 07:05:53;;;;;;;4.42;2.08;;;;;;;13.20;41.87;101561.52;1794745;79;22574;-53
2022/04/29 07:08:23;;;;;;;5.15;1.65;;;;;;;13.32;41.30;101565.10;1769294;80;21022;-52
2022/04/29 07:11:09;;;;;;;4.53;1.50;;;;;;;13.43;41.59;101563.02;1770187;80;20900;-51
2022/04/29 07:13:43;;;;;;;4.97;1.85;;;;;;;13.56;41.38;101558.48;1764892;80;20991;-53
2022/04/29 07:16:11;;;;;;;3.87;1.60;;;;;;;13.68;41.36;101559.86;1770565;80;21046;-53
2022/04/29 07:18:58;;;;;;;4.90;1.57;;;;;;;13.81;41.86;101560.63;1764980;80;20995;-52
2022/04/29 07:21:25;;;;;;;5.03;1.70;;;;;;;13.92;41.03;101560.67;1767523;80;21057;-52
2022/04/29 07:23:52;;;;;;;4.10;1.70;;;;;;;14.04;41.09;101561.55;1730289;81;21096;-52
2022/04/29 07:26:19;;;;;;;3.83;1.55;;;;;;;14.13;40.51;101567.94;1720157;82;21047;-52
2022/04/29 07:28:46;;;;;;;4.53;1.42;;;;;;;14.21;39.75;101566.05;1700420;83;21036;-52
2022/04/29 07:31:15;;;;;;;4.22;1.65;;;;;;;14.29;39.85;101559.68;1719406;81;21072;-52
2022/04/29 07:34:02;;;;;;;5.08;1.75;;;;;;;14.39;39.92;101564.63;1720755;81;21076;-54
2022/04/29 07:42:10;;;;;;;2.92;1.00;;;;;;;14.58;38.37;101556.08;1729583;81;26656;-52
2022/04/29 07:44:37;;;;;;;3.33;1.42;;;;;;;14.65;38.10;101555.98;1743089;81;21054;-52
2022/04/29 07:47:07;;;;;;;3.17;1.30;;;;;;;14.75;38.15;101556.59;1687531;83;21130;-52
2022/04/29 07:49:48;;;;;;;5.30;1.30;;;;;;;14.82;37.66;101544.05;1689472;81;21792;-51
2022/04/29 07:52:17;;;;;;;3.75;1.52;;;;;;;14.91;38.29;101546.93;1709571;81;21102;-53
2022/04/29 07:54:44;;;;;;;3.00;1.30;;;;;;;14.97;38.12;101545.95;1716739;82;21062;-52
2022/04/29 07:57:11;;;;;;;4.20;1.20;;;;;;;15.05;37.21;101540.89;1711515;82;21052;-53
2022/04/29 07:59:39;;;;;;;5.45;1.25;;;;;;;15.15;36.51;101538.34;1716515;82;21066;-53
2022/04/29 08:02:24;;;;;;;4.50;0.95;;;;;;;15.24;35.56;101538.90;1704918;82;21353;-53
2022/04/29 08:04:52;;;;;;;3.92;1.67;;;;;;;15.30;34.54;101532.73;1701453;82;21541;-53
2022/04/29 08:07:20;;;;;;;4.28;1.20;;;;;;;15.36;35.38;101533.57;1701460;82;21039;-53
2022/04/29 08:09:48;;;;;;;2.20;1.00;;;;;;;15.42;34.89;101527.27;1754764;80;21083;-53
2022/04/29 08:12:15;;;;;;;5.40;0.90;;;;;;;15.51;34.51;101523.52;1754196;80;21134;-52
2022/04/29 08:15:01;;;;;;;4.70;1.15;;;;;;;15.59;34.81;101521.90;1754448;80;21090;-52
2022/04/29 08:17:31;;;;;;;3.47;1.00;;;;;;;15.74;34.97;101529.06;1747510;80;21087;-52
2022/04/29 08:19:58;;;;;;;3.25;0.95;;;;;;;15.87;34.35;101526.73;1757957;80;21034;-52
2022/04/29 08:22:27;;;;;;;3.67;0.90;;;;;;;16.01;34.56;101521.11;1749609;80;21051;-52
2022/04/29 08:24:53;;;;;;;6.55;1.47;;;;;;;16.16;34.40;101524.27;1753077;80;21051;-52
2022/04/29 08:27:22;;;;;;;3.67;1.00;;;;;;;16.30;32.99;101516.44;1716085;82;21070;-53
2022/04/29 08:29:49;;;;;;;2.90;1.10;;;;;;;16.34;32.77;101516.05;1698881;83;21557;-53
2022/04/29 08:32:16;;;;;;;5.03;1.20;;;;;;;16.38;32.90;101511.30;1751895;80;21153;-53
2022/04/29 08:34:44;;;;;;;3.30;1.25;;;;;;;16.46;32.57;101512.81;1756122;80;21536;-53
2022/04/29 08:37:12;;;;;;;4.60;1.10;;;;;;;16.57;31.88;101496.41;1754579;80;21032;-52
2022/04/29 08:39:41;;;;;;;3.70;1.12;;;;;;;16.63;31.87;101498.54;1766882;80;21200;-52
2022/04/29 08:42:08;;;;;;;5.53;1.02;;;;;;;16.61;32.47;101499.14;1756424;80;21038;-52
2022/04/29 08:44:36;;;;;;;4.25;1.20;;;;;;;16.61;31.81;101496.48;1756006;80;21098;-54
2022/04/29 08:47:14;;;;;;;4.12;1.10;;;;;;;16.58;31.53;101492.80;1729122;80;21062;-53
2022/04/29 08:49:42;;;;;;;3.33;0.90;;;;;;;16.60;31.68;101494.81;1750556;80;21090;-54
2022/04/29 08:52:11;;;;;;;4.30;1.55;;;;;;;16.67;31.61;101490.14;1761227;80;21023;-52
2022/04/29 09:00:10;;;;;;;3.62;1.20;;;;;;;16.64;31.65;101485.59;1760320;80;21095;-52
2022/04/29 09:02:39;;;;;;;2.90;1.02;;;;;;;16.64;30.72;101482.93;1753552;80;21038;-53
2022/04/29 09:05:10;;;;;;;3.70;1.37;;;;;;;16.56;30.41;101483.63;1756294;80;21116;-53
2022/04/29 09:08:03;;;;;;;2.62;1.07;;;;;;;16.46;31.01;101481.42;1752488;80;22308;-52
2022/04/29 09:10:35;;;;;;;3.55;1.35;;;;;;;16.40;31.22;101478.80;1759812;79;21036;-53
2022/04/29 09:13:19;;;;;;;3.92;1.35;;;;;;;16.34;30.52;101480.69;1765478;80;21051;-52
2022/04/29 09:15:58;;;;;;;3.55;1.22;;;;;;;16.27;31.78;101483.50;1759980;80;21399;-52
2022/04/29 09:18:49;;;;;;;4.50;1.47;;;;;;;16.20;31.55;101473.06;1759662;80;21153;-53
2022/04/29 09:21:27;;;;;;;3.85;1.52;;;;;;;16.14;32.28;101481.91;1765127;80;21131;-53
2022/04/29 09:23:57;;;;;;;6.00;1.62;;;;;;;16.13;31.93;101486.02;1769914;80;21051;-53
2022/04/29 09:26:35;;;;;;;3.55;1.27;;;;;;;16.13;32.03;101481.55;1756830;80;21121;-53
2022/04/29 09:29:21;;;;;;;3.33;1.20;;;;;;;16.12;31.94;101478.56;1750770;80;22295;-54
2022/04/29 09:31:59;;;;;;;3.17;1.07;;;;;;;16.18;32.46;101475.84;1706937;81;21381;-52
2022/04/29 09:34:54;;;;;;;4.37;1.40;;;;;;;16.22;31.49;101469.28;1721595;80;21114;-52
2022/04/29 09:37:25;;;;;;;6.55;1.50;;;;;;;16.29;31.46;101464.28;1761192;80;21560;-52
2022/04/29 09:40:00;;;;;;;3.80;1.37;;;;;;;16.34;31.39;101466.08;1753930;80;21039;-53
2022/04/29 09:42:42;;;;;;;3.08;1.20;;;;;;;16.33;31.20;101465.22;1754471;80;21055;-52
2022/04/29 09:45:24;;;;;;;4.15;1.30;;;;;;;16.36;31.13;101465.45;1752154;80;21640;-53
2022/04/29 09:47:54;;;;;;;4.70;1.47;;;;;;;16.43;30.92;101464.42;1757684;80;21354;-52
2022/04/29 09:50:22;;;;;;;3.77;1.37;;;;;;;16.44;30.82;101458.98;1753320;80;21056;-53
2022/04/29 09:52:49;;;;;;;4.17;1.40;;;;;;;16.46;31.15;101459.68;1751940;80;21035;-53
2022/04/29 09:55:18;;;;;;;5.50;1.30;;;;;;;16.50;31.38;101461.08;1751831;79;21098;-53
2022/04/29 09:57:56;;;;;;;3.60;1.30;;;;;;;16.50;31.25;101458.91;1750170;80;21158;-52
2022/04/29 10:00:21;;;;;;;3.55;1.30;;;;;;;16.52;31.36;101459.15;1751808;80;21059;-52
2022/04/29 10:02:53;;;;;;;4.80;1.52;;;;;;;16.49;31.00;101462.07;1752601;80;21070;-54
2022/04/29 10:05:19;;;;;;;5.30;1.45;;;;;;;16.47;31.33;101460.01;1753215;80;21080;-54
2022/04/29 10:07:47;;;;;;;3.35;1.60;;;;;;;16.48;31.64;101459.55;1738299;81;22420;-53
2022/04/29 10:10:15;;;;;;;3.87;1.15;;;;;;;16.44;32.11;101458.98;1754031;81;21141;-53
2022/04/29 10:12:48;;;;;;;4.67;1.50;;;;;;;16.37;32.28;101456.98;1750862;81;21047;-53
2022/04/29 10:15:37;;;;;;;3.75;1.37;;;;;;;16.33;31.63;101460.40;1746219;80;21005;-53
2022/04/29 10:21:16;;;;;;;4.00;1.70;;;;;;;16.26;31.99;101457.44;1650570;85;21137;-53
2022/04/29 10:23:50;;;;;;;3.60;1.45;;;;;;;16.25;31.40;101461.05;1731154;81;21160;-53
2022/04/29 10:26:18;;;;;;;5.47;1.40;;;;;;;16.26;31.56;101464.08;1743130;80;21038;-53
2022/04/29 10:28:45;;;;;;;3.35;1.35;;;;;;;16.35;31.07;101463.75;1740298;81;22254;-53
2022/04/29 10:31:20;;;;;;;5.45;1.47;;;;;;;16.44;31.80;101460.31;1740209;81;21089;-54
2022/04/29 10:33:46;;;;;;;3.65;1.20;;;;;;;16.60;31.77;101459.78;1750580;81;21021;-52
2022/04/29 10:36:15;;;;;;;5.25;1.65;;;;;;;16.77;31.29;101452.95;1749259;81;21090;-52
2022/04/29 10:38:46;;;;;;;4.05;1.32;;;;;;;16.94;30.65;101449.31;1737214;80;21069;-53
2022/04/29 10:41:24;;;;;;;5.50;1.80;;;;;;;17.09;31.02;101447.42;1744333;80;21103;-52
2022/04/29 10:43:56;;;;;;;3.85;1.35;;;;;;;17.23;31.07;101453.30;1744522;81;21067;-52
2022/04/29 10:46:39;;;;;;;4.35;1.80;;;;;;;17.31;30.53;101442.80;1742594;80;21122;-52
2022/04/29 10:49:30;;;;;;;4.50;1.52;;;;;;;17.31;30.14;101448.13;1719786;81;21282;-53
2022/04/29 10:52:28;;;;;;;5.08;2.37;;;;;;;17.27;30.09;101444.91;1739951;81;21044;-52
2022/04/29 10:55:10;;;;;;;4.10;1.65;;;;;;;17.31;30.28;101436.66;1754032;81;21088;-52
2022/04/29 10:58:03;;;;;;;5.07;1.90;;;;;;;17.36;30.29;101437.06;1702320;81;21120;-53
2022/04/29 11:00:30;;;;;;;5.10;2.50;;;;;;;17.38;29.56;101439.95;1720417;82;21131;-53
2022/04/29 11:03:37;;;;;;;11.35;2.40;;;;;;;17.34;29.16;101445.69;1731076;81;21138;-52
2022/04/29 11:06:08;;;;;;;4.83;1.95;;;;;;;17.29;29.53;101439.45;1755793;80;21546;-53
2022/04/29 11:08:35;;;;;;;4.30;1.80;;;;;;;17.29;30.69;101435.46;1748113;80;21603;-53
2022/04/29 11:11:02;;;;;;;5.33;1.87;;;;;;;17.33;30.58;101430.23;1755047;80;21033;-53
2022/04/29 11:13:44;;;;;;;4.53;2.10;;;;;;;17.30;30.39;101430.50;1696522;80;21074;-52
2022/04/29 11:16:34;;;;;;;6.35;2.42;;;;;;;17.25;30.37;101432.75;1751160;80;21266;-54
2022/04/29 11:19:19;;;;;;;3.90;1.90;;;;;;;17.20;29.41;101429.17;1732910;80;21403;-52
2022/04/29 11:24:47;;;;;;;5.42;2.05;;;;;;;17.19;29.86;101427.48;1756417;80;21054;-53
2022/04/29 11:27:29;;;;;;;6.40;2.45;;;;;;;17.29;30.50;101420.83;1746832;80;27207;-54
2022/04/29 11:30:01;;;;;;;5.47;2.20;;;;;;;17.50;30.95;101423.34;1748416;80;21070;-53
2022/04/29 11:32:37;;;;;;;7.75;2.33;;;;;;;17.70;30.50;101417.95;1739415;80;21723;-52
2022/04/29 11:35:05;;;;;;;7.05;2.80;;;;;;;17.87;29.56;101416.39;1747943;80;21048;-54
2022/04/29 11:37:38;;;;;;;4.92;2.22;;;;;;;17.96;29.04;101407.55;1752038;80;21066;-53
2022/04/29 11:40:07;;;;;;;5.90;2.20;;;;;;;18.07;28.89;101403.84;1752946;80;21097;-53
2022/04/29 11:42:34;;;;;;;5.17;2.20;;;;;;;18.20;29.25;101407.84;1754160;80;21192;-53
2022/04/29 11:45:08;;;;;;;5.35;2.60;;;;;;;18.26;28.94;101406.42;1754626;80;21055;-53
2022/04/29 11:47:39;;;;;;;5.28;2.12;;;;;;;18.21;28.69;101400.70;1751464;80;21083;-53
2022/04/29 11:50:08;;;;;;;4.92;2.30;;;;;;;18.15;28.57;101402.12;1752952;80;21070;-53
2022/04/29 11:52:36;;;;;;;7.15;2.50;;;;;;;18.13;29.08;101393.95;1747760;80;21070;-53
2022/04/29 11:55:09;;;;;;;4.70;2.27;;;;;;;18.17;28.96;101388.66;1751895;80;21147;-54
2022/04/29 11:57:49;;;;;;;5.53;2.42;;;;;;;18.17;28.67;101389.52;1746355;80;21540;-53
2022/04/29 12:00:26;;;;;;;5.40;1.98;;;;;;;18.14;29.18;101382.28;1752953;80;21040;-52
2022/04/29 12:02:53;;;;;;;7.83;2.10;;;;;;;18.06;29.72;101388.37;1752009;80;21035;-52
2022/04/29 12:05:26;;;;;;;5.97;2.75;;;;;;;18.00;30.22;101386.28;1755401;80;21110;-52
2022/04/29 12:07:53;;;;;;;6.12;2.60;;;;;;;17.96;30.50;101377.75;1758459;80;21132;-52
2022/04/29 12:10:28;;;;;;;6.35;2.58;;;;;;;17.96;29.50;101376.42;1758412;80;21026;-53
2022/04/29 12:12:57;;;;;;;5.28;2.45;;;;;;;17.91;29.51;101372.03;1759923;80;21105;-52